Time;durP1;ratioP1;P1;durP2;ratioP2;P2;SDS_P1;SDS_P2;PMS_P1;PMS_P2;Temp;Humidity;BMP_temperature;BMP_pressure;BME280_temperature;BME280_humidity;BME280_pressure;Samples;Min_cycle;Max_cycle;Signal;HPM_P1;HPM_P2
2024/03/13 00:00:10;;;;;;;12.50;7.35;;;;;;;;;;6254815;22;20034;-86
2024/03/13 00:02:37;;;;;;;11.00;8.15;;;;;;;;;;6255139;22;20016;-85
2024/03/13 00:05:06;;;;;;;10.55;6.88;;;;;;;;;;6254508;22;20460;-85
2024/03/13 00:07:35;;;;;;;13.50;7.93;;;;;;;;;;6254303;22;20073;-85
2024/03/13 00:10:02;;;;;;;11.57;7.70;;;;;;;;;;6259983;22;20019;-85
2024/03/13 00:12:30;;;;;;;9.90;7.30;;;;;;;;;;6255700;22;20051;-86
2024/03/13 00:15:01;;;;;;;10.73;6.88;;;;;;;;;;6260553;22;20023;-86
2024/03/13 00:17:28;;;;;;;9.90;7.18;;;;;;;;;;6272720;22;20020;-84
2024/03/13 00:19:55;;;;;;;11.57;6.93;;;;;;;;;;6277979;22;20499;-84
2024/03/13 00:22:24;;;;;;;10.82;7.70;;;;;;;;;;6278476;22;20024;-84
2024/03/13 00:24:56;;;;;;;11.00;7.18;;;;;;;;;;6251547;22;20443;-85
2024/03/13 00:27:24;;;;;;;9.60;6.77;;;;;;;;;;6251187;22;20048;-84
2024/03/13 00:29:52;;;;;;;9.68;6.93;;;;;;;;;;6251076;22;20016;-85
2024/03/13 00:32:23;;;;;;;9.60;7.07;;;;;;;;;;6250971;22;20020;-85
2024/03/13 00:34:51;;;;;;;10.80;7.38;;;;;;;;;;6277405;22;20016;-84
2024/03/13 00:37:18;;;;;;;10.82;6.70;;;;;;;;;;6277633;22;20018;-85
2024/03/13 00:39:46;;;;;;;11.77;7.57;;;;;;;;;;6251085;22;20455;-85
2024/03/13 00:42:13;;;;;;;12.63;8.77;;;;;;;;;;6280265;22;20078;-85
2024/03/13 00:44:41;;;;;;;10.45;7.75;;;;;;;;;;6250382;22;20020;-85
2024/03/13 00:47:08;;;;;;;10.15;7.20;;;;;;;;;;6251040;22;20015;-83
2024/03/13 00:49:37;;;;;;;11.85;8.00;;;;;;;;;;6250704;22;20081;-85
2024/03/13 00:52:04;;;;;;;11.90;7.90;;;;;;;;;;6250396;22;20023;-85
2024/03/13 00:54:32;;;;;;;13.52;8.70;;;;;;;;;;6250428;22;20470;-84
2024/03/13 00:57:00;;;;;;;14.20;9.07;;;;;;;;;;6251270;22;20382;-84
2024/03/13 00:59:27;;;;;;;13.57;9.23;;;;;;;;;;6250649;22;20085;-84
2024/03/13 01:01:59;;;;;;;17.77;10.13;;;;;;;;;;6251178;22;20019;-85
2024/03/13 01:04:26;;;;;;;16.08;10.13;;;;;;;;;;6263610;22;20027;-84
2024/03/13 01:06:54;;;;;;;15.55;9.80;;;;;;;;;;6290840;22;20019;-85
2024/03/13 01:09:23;;;;;;;13.63;8.68;;;;;;;;;;6285293;22;20020;-85
2024/03/13 01:11:54;;;;;;;15.93;9.15;;;;;;;;;;6257700;22;20020;-85
2024/03/13 01:14:22;;;;;;;14.18;9.20;;;;;;;;;;6285078;22;20046;-85
2024/03/13 01:16:55;;;;;;;14.27;9.90;;;;;;;;;;6254530;22;20016;-85
2024/03/13 01:19:23;;;;;;;14.30;9.43;;;;;;;;;;6277769;22;20016;-85
2024/03/13 01:22:03;;;;;;;12.35;8.32;;;;;;;;;;6250938;22;20011;-85
2024/03/13 01:24:32;;;;;;;14.38;9.20;;;;;;;;;;6250812;22;20015;-85
2024/03/13 01:27:00;;;;;;;15.55;8.95;;;;;;;;;;6252347;22;20094;-85
2024/03/13 01:29:27;;;;;;;14.95;9.13;;;;;;;;;;6287912;22;20360;-86
2024/03/13 01:31:58;;;;;;;15.50;9.40;;;;;;;;;;6260162;22;20019;-86
2024/03/13 01:34:25;;;;;;;17.23;9.80;;;;;;;;;;6258286;22;20020;-86
2024/03/13 01:39:38;;;;;;;21.83;12.18;;;;;;;;;;6281375;22;20028;-84
2024/03/13 01:56:27;;;;;;;19.02;10.88;;;;;;;;;;6277404;22;20019;-85
2024/03/13 02:04:38;;;;;;;20.77;11.93;;;;;;;;;;6276975;22;20026;-85
2024/03/13 02:07:05;;;;;;;22.35;12.13;;;;;;;;;;6277645;22;20016;-84
2024/03/13 02:09:33;;;;;;;26.30;13.00;;;;;;;;;;6250658;22;20082;-84
2024/03/13 02:12:00;;;;;;;19.02;11.30;;;;;;;;;;6244849;23;20098;-84
2024/03/13 02:14:28;;;;;;;20.73;11.85;;;;;;;;;;6244816;23;20021;-84
2024/03/13 02:16:55;;;;;;;20.33;11.98;;;;;;;;;;6244527;23;20024;-84
2024/03/13 02:19:23;;;;;;;23.38;12.50;;;;;;;;;;6244449;23;20016;-84
2024/03/13 02:21:57;;;;;;;20.30;11.65;;;;;;;;;;6246679;22;20066;-85
2024/03/13 02:24:26;;;;;;;20.70;12.00;;;;;;;;;;6245631;23;20016;-85
2024/03/13 02:26:53;;;;;;;23.02;12.27;;;;;;;;;;6245268;23;20071;-84
2024/03/13 02:29:21;;;;;;;23.83;12.27;;;;;;;;;;6247097;22;20360;-84
2024/03/13 02:31:48;;;;;;;22.33;12.30;;;;;;;;;;6246273;22;20028;-85
2024/03/13 02:34:19;;;;;;;22.45;12.45;;;;;;;;;;6245103;23;20103;-84
2024/03/13 02:36:47;;;;;;;27.17;13.18;;;;;;;;;;6244561;23;20016;-85
2024/03/13 02:39:17;;;;;;;24.42;12.35;;;;;;;;;;6245688;22;20016;-84
2024/03/13 02:41:45;;;;;;;27.85;14.18;;;;;;;;;;6244970;23;20325;-84
2024/03/13 02:44:12;;;;;;;24.60;13.93;;;;;;;;;;6244780;23;20352;-84
2024/03/13 02:46:40;;;;;;;27.00;13.68;;;;;;;;;;6244882;23;20020;-85
2024/03/13 02:49:07;;;;;;;26.95;13.55;;;;;;;;;;6244752;23;20058;-84
2024/03/13 02:51:34;;;;;;;29.73;14.15;;;;;;;;;;6244675;23;20081;-84
2024/03/13 02:54:02;;;;;;;27.90;14.27;;;;;;;;;;6244270;23;20082;-84
2024/03/13 02:56:29;;;;;;;27.67;14.18;;;;;;;;;;6245839;22;20039;-84
2024/03/13 02:58:56;;;;;;;31.88;15.13;;;;;;;;;;6244717;23;20031;-84
2024/03/13 03:01:23;;;;;;;26.88;14.20;;;;;;;;;;6244727;23;20020;-85
2024/03/13 03:03:51;;;;;;;32.63;15.73;;;;;;;;;;6246476;22;20016;-85
2024/03/13 03:06:18;;;;;;;35.15;16.00;;;;;;;;;;6244515;23;20020;-84
2024/03/13 03:08:46;;;;;;;30.70;15.48;;;;;;;;;;6245645;23;20074;-85
2024/03/13 03:11:13;;;;;;;31.85;14.52;;;;;;;;;;6244980;23;20464;-84
2024/03/13 03:13:40;;;;;;;29.30;15.40;;;;;;;;;;6246207;22;20051;-85
2024/03/13 03:16:08;;;;;;;35.47;17.08;;;;;;;;;;6244515;23;20100;-84
2024/03/13 03:18:36;;;;;;;40.88;18.67;;;;;;;;;;6244556;23;20016;-84
2024/03/13 03:21:07;;;;;;;47.17;20.25;;;;;;;;;;6245783;22;20020;-85
2024/03/13 03:23:35;;;;;;;48.40;19.60;;;;;;;;;;6244418;23;20016;-84
2024/03/13 03:26:02;;;;;;;44.67;19.20;;;;;;;;;;6244590;23;20016;-84
2024/03/13 03:28:29;;;;;;;43.08;17.48;;;;;;;;;;6245919;22;20095;-84
2024/03/13 03:30:58;;;;;;;39.47;18.02;;;;;;;;;;6245005;23;20024;-85
2024/03/13 03:33:25;;;;;;;41.75;18.75;;;;;;;;;;6244995;23;20024;-84
2024/03/13 03:35:53;;;;;;;40.45;18.30;;;;;;;;;;6246442;22;20020;-85
2024/03/13 03:38:20;;;;;;;48.00;20.20;;;;;;;;;;6244487;23;20038;-84
2024/03/13 03:40:47;;;;;;;39.83;18.85;;;;;;;;;;6244969;23;20016;-85
2024/03/13 03:43:17;;;;;;;40.22;18.08;;;;;;;;;;6244048;23;20518;-85
2024/03/13 03:45:46;;;;;;;43.28;18.77;;;;;;;;;;6244645;23;20016;-84
2024/03/13 03:48:13;;;;;;;43.00;18.30;;;;;;;;;;6246024;22;20012;-84
2024/03/13 03:50:40;;;;;;;42.65;18.15;;;;;;;;;;6244249;23;20020;-84
2024/03/13 03:53:08;;;;;;;41.60;19.92;;;;;;;;;;6245573;22;20013;-84
2024/03/13 03:55:36;;;;;;;44.38;18.55;;;;;;;;;;6247621;23;20016;-85
2024/03/13 03:58:06;;;;;;;43.92;19.13;;;;;;;;;;6254058;23;20366;-84
2024/03/13 04:00:35;;;;;;;49.40;19.00;;;;;;;;;;6251181;22;20413;-84
2024/03/13 04:03:02;;;;;;;47.13;19.52;;;;;;;;;;6247167;22;20352;-84
2024/03/13 04:05:30;;;;;;;49.65;20.02;;;;;;;;;;6245320;23;20020;-84
2024/03/13 04:07:58;;;;;;;44.75;20.20;;;;;;;;;;6244642;23;20027;-84
2024/03/13 04:10:26;;;;;;;49.47;21.10;;;;;;;;;;6244557;23;20031;-84
2024/03/13 04:12:53;;;;;;;47.47;19.95;;;;;;;;;;6244124;23;20024;-84
2024/03/13 04:15:26;;;;;;;46.47;20.17;;;;;;;;;;6244383;23;20091;-84
2024/03/13 04:17:53;;;;;;;47.50;20.48;;;;;;;;;;6244885;23;20027;-84
2024/03/13 04:20:21;;;;;;;48.85;20.30;;;;;;;;;;6245919;23;20016;-84
2024/03/13 04:22:50;;;;;;;44.97;19.85;;;;;;;;;;6246088;23;20047;-84
2024/03/13 04:25:18;;;;;;;64.38;24.83;;;;;;;;;;6245673;23;20045;-84
2024/03/13 04:27:47;;;;;;;60.83;24.98;;;;;;;;;;6247329;23;20020;-83
2024/03/13 04:30:15;;;;;;;52.40;20.27;;;;;;;;;;6246181;23;20460;-84
2024/03/13 04:32:42;;;;;;;55.80;21.35;;;;;;;;;;6246460;23;20494;-84
2024/03/13 04:35:10;;;;;;;53.67;20.75;;;;;;;;;;6246319;23;20078;-84
2024/03/13 04:37:39;;;;;;;47.60;22.60;;;;;;;;;;6272730;22;20006;-83
2024/03/13 04:40:09;;;;;;;54.63;23.20;;;;;;;;;;6258338;22;20012;-86
2024/03/13 04:42:36;;;;;;;53.63;22.30;;;;;;;;;;6254155;23;20071;-86
2024/03/13 04:45:04;;;;;;;61.30;24.23;;;;;;;;;;6253971;22;20076;-86
2024/03/13 04:47:32;;;;;;;83.82;28.73;;;;;;;;;;6252791;23;20024;-86
2024/03/13 04:49:59;;;;;;;95.68;30.00;;;;;;;;;;6255269;22;20024;-86
2024/03/13 04:52:26;;;;;;;69.55;26.90;;;;;;;;;;6253343;23;20024;-85
2024/03/13 04:54:55;;;;;;;81.85;27.52;;;;;;;;;;6252119;23;20076;-86
2024/03/13 04:57:23;;;;;;;73.35;26.67;;;;;;;;;;6253033;23;20126;-86
2024/03/13 04:59:50;;;;;;;70.68;27.30;;;;;;;;;;6258024;23;20043;-86
2024/03/13 05:02:24;;;;;;;74.73;29.00;;;;;;;;;;6255011;23;20024;-85
2024/03/13 05:04:51;;;;;;;88.63;30.90;;;;;;;;;;6251086;23;20239;-85
2024/03/13 05:07:18;;;;;;;86.63;33.88;;;;;;;;;;6251769;23;20020;-85
2024/03/13 05:09:47;;;;;;;78.55;29.38;;;;;;;;;;6251146;23;20020;-85
2024/03/13 05:12:14;;;;;;;107.07;33.72;;;;;;;;;;6261720;22;20507;-84
2024/03/13 05:14:42;;;;;;;76.72;29.38;;;;;;;;;;6249762;23;20012;-84
2024/03/13 05:17:15;;;;;;;85.40;29.65;;;;;;;;;;6251994;22;20018;-85
2024/03/13 05:19:43;;;;;;;75.90;28.33;;;;;;;;;;6250099;23;20020;-85
2024/03/13 05:22:10;;;;;;;81.07;28.13;;;;;;;;;;6250209;23;20016;-84
2024/03/13 05:24:37;;;;;;;66.43;27.75;;;;;;;;;;6251694;22;20038;-85
2024/03/13 05:27:05;;;;;;;91.57;29.48;;;;;;;;;;6249754;23;20016;-85
2024/03/13 05:29:32;;;;;;;87.25;29.38;;;;;;;;;;6249564;23;20058;-84
2024/03/13 05:32:07;;;;;;;64.07;26.88;;;;;;;;;;6249787;23;20070;-84
2024/03/13 05:34:34;;;;;;;76.05;28.42;;;;;;;;;;6248733;23;20023;-84
2024/03/13 05:37:01;;;;;;;63.65;26.75;;;;;;;;;;6247653;22;20020;-84
2024/03/13 05:39:29;;;;;;;70.88;26.70;;;;;;;;;;6247525;22;20511;-84
2024/03/13 05:41:56;;;;;;;65.38;26.02;;;;;;;;;;6246287;23;20019;-84
2024/03/13 05:44:24;;;;;;;78.95;28.25;;;;;;;;;;6253279;23;20016;-84
2024/03/13 05:46:54;;;;;;;82.72;27.90;;;;;;;;;;6257661;23;20381;-85
2024/03/13 05:49:21;;;;;;;76.25;27.20;;;;;;;;;;6263061;23;20024;-84
2024/03/13 05:51:48;;;;;;;74.38;27.98;;;;;;;;;;6246902;23;20047;-85
2024/03/13 05:54:16;;;;;;;77.68;28.38;;;;;;;;;;6247823;23;20024;-84
2024/03/13 05:56:43;;;;;;;77.40;29.85;;;;;;;;;;6248214;23;20027;-85
2024/03/13 05:59:10;;;;;;;102.53;36.15;;;;;;;;;;6247655;22;20047;-85
2024/03/13 06:01:38;;;;;;;68.50;32.28;;;;;;;;;;6249737;23;20016;-85
2024/03/13 06:04:05;;;;;;;78.00;32.70;;;;;;;;;;6248392;23;20016;-85
2024/03/13 06:06:32;;;;;;;72.82;31.17;;;;;;;;;;6253771;22;20020;-85
2024/03/13 06:09:00;;;;;;;61.13;25.77;;;;;;;;;;6247907;23;20329;-85
2024/03/13 06:11:27;;;;;;;75.20;28.73;;;;;;;;;;6253209;23;20020;-85
2024/03/13 06:13:55;;;;;;;64.68;26.55;;;;;;;;;;6251195;23;20020;-84
2024/03/13 06:16:22;;;;;;;60.15;25.60;;;;;;;;;;6246608;23;20028;-85
2024/03/13 06:18:56;;;;;;;62.00;26.25;;;;;;;;;;6246275;23;20475;-85
2024/03/13 06:21:23;;;;;;;53.80;24.00;;;;;;;;;;6246605;23;20020;-85
2024/03/13 06:23:58;;;;;;;54.40;24.88;;;;;;;;;;6246212;23;20012;-84
2024/03/13 06:26:27;;;;;;;65.65;23.85;;;;;;;;;;6248139;22;20070;-84
2024/03/13 06:31:41;;;;;;;55.35;24.45;;;;;;;;;;6248153;22;20399;-85
2024/03/13 06:34:11;;;;;;;75.00;28.17;;;;;;;;;;6247760;22;20020;-85
2024/03/13 06:36:42;;;;;;;59.38;27.02;;;;;;;;;;6247018;23;20100;-85
2024/03/13 06:39:09;;;;;;;73.95;27.00;;;;;;;;;;6248933;23;20027;-85
2024/03/13 06:41:36;;;;;;;62.78;27.33;;;;;;;;;;6249805;22;20020;-85
2024/03/13 06:44:05;;;;;;;62.22;27.63;;;;;;;;;;6248899;23;20043;-84
2024/03/13 06:46:33;;;;;;;53.85;25.15;;;;;;;;;;6249011;23;20024;-85
2024/03/13 06:49:02;;;;;;;71.95;27.55;;;;;;;;;;6250792;23;20501;-85
2024/03/13 06:51:30;;;;;;;64.28;27.13;;;;;;;;;;6250344;23;20476;-85
2024/03/13 06:53:57;;;;;;;61.95;27.02;;;;;;;;;;6251235;23;20020;-85
2024/03/13 06:56:24;;;;;;;73.55;28.92;;;;;;;;;;6251225;22;20020;-85
2024/03/13 06:58:52;;;;;;;358.60;227.35;;;;;;;;;;6248179;23;20027;-85
2024/03/13 07:01:19;;;;;;;75.47;31.60;;;;;;;;;;6246305;23;20012;-85
2024/03/13 07:03:46;;;;;;;68.97;27.15;;;;;;;;;;6247667;22;20095;-85
2024/03/13 07:06:14;;;;;;;56.10;25.10;;;;;;;;;;6247791;22;20102;-84
2024/03/13 07:08:42;;;;;;;53.28;25.38;;;;;;;;;;6246986;23;20020;-84
2024/03/13 07:11:09;;;;;;;53.15;24.67;;;;;;;;;;6251418;22;20023;-84
2024/03/13 07:13:36;;;;;;;47.00;23.80;;;;;;;;;;6251735;22;20016;-85
2024/03/13 07:16:04;;;;;;;45.95;23.85;;;;;;;;;;6284412;22;20063;-85
2024/03/13 07:18:31;;;;;;;43.78;22.73;;;;;;;;;;6253263;22;20094;-85
2024/03/13 07:21:00;;;;;;;43.53;23.80;;;;;;;;;;6258357;22;20071;-85
2024/03/13 07:23:27;;;;;;;42.85;22.52;;;;;;;;;;6280821;22;20019;-84
2024/03/13 07:25:55;;;;;;;38.40;21.05;;;;;;;;;;6278379;22;20023;-85
2024/03/13 07:28:22;;;;;;;40.25;22.02;;;;;;;;;;6282293;22;20026;-85
2024/03/13 07:30:50;;;;;;;36.63;20.35;;;;;;;;;;6282474;22;20360;-85
2024/03/13 07:33:17;;;;;;;36.85;21.27;;;;;;;;;;6254792;22;20024;-84
2024/03/13 07:35:47;;;;;;;37.50;19.30;;;;;;;;;;6258602;22;20066;-85
2024/03/13 07:38:14;;;;;;;36.60;19.10;;;;;;;;;;6261164;22;20027;-84
2024/03/13 07:40:41;;;;;;;33.13;19.42;;;;;;;;;;6255763;22;20012;-85
2024/03/13 07:43:09;;;;;;;34.42;18.58;;;;;;;;;;6254956;22;20012;-85
2024/03/13 07:45:39;;;;;;;32.97;17.73;;;;;;;;;;6253469;22;20069;-84
2024/03/13 07:48:10;;;;;;;32.13;18.58;;;;;;;;;;6250522;22;20090;-85
2024/03/13 07:50:40;;;;;;;28.52;17.38;;;;;;;;;;6249865;22;20050;-84
2024/03/13 07:53:08;;;;;;;36.78;18.60;;;;;;;;;;6254363;22;20027;-85
2024/03/13 07:55:36;;;;;;;32.95;17.58;;;;;;;;;;6259407;22;20031;-85
2024/03/13 07:58:05;;;;;;;31.98;18.35;;;;;;;;;;6284674;22;20408;-85
2024/03/13 08:00:35;;;;;;;32.00;18.17;;;;;;;;;;6291138;22;20026;-85
2024/03/13 08:03:03;;;;;;;28.95;16.95;;;;;;;;;;6270864;22;20039;-85
2024/03/13 08:05:31;;;;;;;36.25;18.67;;;;;;;;;;6266123;22;20023;-86
2024/03/13 08:07:59;;;;;;;25.65;15.68;;;;;;;;;;6264726;22;20036;-86
2024/03/13 08:10:44;;;;;;;36.08;16.35;;;;;;;;;;6266613;22;20018;-86
2024/03/13 08:13:30;;;;;;;31.08;15.68;;;;;;;;;;6265292;22;20478;-85
2024/03/13 08:16:17;;;;;;;28.58;16.98;;;;;;;;;;6267567;22;20042;-85
2024/03/13 08:19:02;;;;;;;26.35;15.68;;;;;;;;;;6266765;22;20022;-85
2024/03/13 08:21:46;;;;;;;20.05;10.88;;;;;;;;;;6265444;22;20041;-85
2024/03/13 08:24:31;;;;;;;7.43;5.68;;;;;;;;;;6266771;22;20076;-86
2024/03/13 08:27:16;;;;;;;5.88;4.57;;;;;;;;;;6262816;22;20014;-86
2024/03/13 08:30:03;;;;;;;4.32;3.92;;;;;;;;;;6259720;22;20034;-85
2024/03/13 08:32:53;;;;;;;4.30;3.90;;;;;;;;;;6259775;22;20014;-86
2024/03/13 08:35:41;;;;;;;4.28;3.78;;;;;;;;;;6261395;22;20521;-85
2024/03/13 08:38:27;;;;;;;4.05;3.38;;;;;;;;;;6285616;22;20473;-87
2024/03/13 08:41:12;;;;;;;3.38;3.08;;;;;;;;;;6262401;22;20105;-87
2024/03/13 08:43:57;;;;;;;4.75;2.67;;;;;;;;;;6282899;22;20027;-85
2024/03/13 08:46:43;;;;;;;2.83;2.63;;;;;;;;;;6270955;22;20027;-86
2024/03/13 08:49:28;;;;;;;3.08;2.88;;;;;;;;;;6269559;22;20042;-86
2024/03/13 08:52:13;;;;;;;5.00;3.17;;;;;;;;;;6261671;22;20018;-87
2024/03/13 08:54:58;;;;;;;3.22;2.90;;;;;;;;;;6267646;22;20124;-86
2024/03/13 08:57:43;;;;;;;4.03;3.28;;;;;;;;;;6261842;22;20022;-86
2024/03/13 09:00:28;;;;;;;3.33;3.03;;;;;;;;;;6279370;22;20065;-87
2024/03/13 09:03:14;;;;;;;7.22;3.22;;;;;;;;;;6269421;22;20019;-86
2024/03/13 09:06:26;;;;;;;3.70;2.65;;;;;;;;;;6269936;22;20011;-84
2024/03/13 09:08:54;;;;;;;3.35;3.05;;;;;;;;;;6269085;22;20069;-84
2024/03/13 09:11:24;;;;;;;3.85;3.55;;;;;;;;;;6266989;22;20075;-84
2024/03/13 09:13:53;;;;;;;2.83;2.55;;;;;;;;;;6266994;22;20046;-84
2024/03/13 09:16:21;;;;;;;2.85;2.65;;;;;;;;;;6292221;22;20028;-84
2024/03/13 09:18:49;;;;;;;3.25;2.95;;;;;;;;;;6265014;22;20058;-83
2024/03/13 09:21:18;;;;;;;2.92;2.72;;;;;;;;;;6264602;22;20020;-85
2024/03/13 09:23:46;;;;;;;4.70;3.13;;;;;;;;;;6263431;22;20019;-85
2024/03/13 09:26:15;;;;;;;8.07;3.47;;;;;;;;;;6251049;22;20091;-84
2024/03/13 09:28:42;;;;;;;3.15;2.88;;;;;;;;;;6251277;22;20467;-86
2024/03/13 09:31:09;;;;;;;6.22;3.30;;;;;;;;;;6252210;22;20026;-84
2024/03/13 09:33:36;;;;;;;9.23;3.53;;;;;;;;;;6251184;22;20069;-84
2024/03/13 09:36:07;;;;;;;7.22;3.58;;;;;;;;;;6250737;22;20031;-81
2024/03/13 09:38:34;;;;;;;7.43;3.30;;;;;;;;;;6251176;22;20050;-84
2024/03/13 09:41:05;;;;;;;3.25;2.75;;;;;;;;;;6277170;22;20094;-81
2024/03/13 09:43:32;;;;;;;3.15;2.60;;;;;;;;;;6250597;22;20047;-84
2024/03/13 09:46:01;;;;;;;2.67;2.47;;;;;;;;;;6250322;22;20073;-85
2024/03/13 09:48:29;;;;;;;2.50;2.10;;;;;;;;;;6249717;22;20464;-84
2024/03/13 09:50:57;;;;;;;3.78;2.00;;;;;;;;;;6276552;22;20031;-84
2024/03/13 09:53:28;;;;;;;2.40;2.20;;;;;;;;;;6277195;22;20095;-84
2024/03/13 09:55:56;;;;;;;1.95;1.85;;;;;;;;;;6277206;22;20355;-84
2024/03/13 09:58:23;;;;;;;7.88;2.47;;;;;;;;;;6249895;22;20020;-83
2024/03/13 10:00:56;;;;;;;4.80;2.45;;;;;;;;;;6249769;22;20065;-84
2024/03/13 10:03:24;;;;;;;3.13;2.57;;;;;;;;;;6249694;22;20530;-87
2024/03/13 10:05:53;;;;;;;2.35;2.15;;;;;;;;;;6250312;22;20035;-85
2024/03/13 10:08:21;;;;;;;3.08;2.78;;;;;;;;;;6277077;22;20043;-84
2024/03/13 10:10:49;;;;;;;3.72;3.05;;;;;;;;;;6250464;22;20024;-82
2024/03/13 10:13:17;;;;;;;2.90;2.70;;;;;;;;;;6250204;22;20058;-83
2024/03/13 10:15:46;;;;;;;5.32;3.40;;;;;;;;;;6276872;22;20034;-84
2024/03/13 10:18:18;;;;;;;4.50;3.40;;;;;;;;;;6249620;22;20398;-85
2024/03/13 10:20:47;;;;;;;3.40;3.10;;;;;;;;;;6250057;22;20042;-85
2024/03/13 10:23:16;;;;;;;3.38;3.08;;;;;;;;;;6250275;22;20128;-85
2024/03/13 10:25:44;;;;;;;4.45;3.75;;;;;;;;;;6250226;22;20016;-84
2024/03/13 10:28:13;;;;;;;11.23;3.50;;;;;;;;;;6250782;22;20015;-85
2024/03/13 10:30:40;;;;;;;6.70;3.40;;;;;;;;;;6251276;22;20521;-85
2024/03/13 10:33:08;;;;;;;4.95;3.70;;;;;;;;;;6250435;22;20027;-84
2024/03/13 10:35:35;;;;;;;4.97;4.30;;;;;;;;;;6250924;22;20023;-85
2024/03/13 10:38:03;;;;;;;6.55;4.15;;;;;;;;;;6251186;22;20038;-85
2024/03/13 10:40:31;;;;;;;15.07;4.80;;;;;;;;;;6249928;22;20494;-85
2024/03/13 10:42:59;;;;;;;6.10;4.68;;;;;;;;;;6277223;22;20016;-84
2024/03/13 10:45:26;;;;;;;5.70;4.20;;;;;;;;;;6277448;22;20065;-85
2024/03/13 10:47:53;;;;;;;7.45;4.30;;;;;;;;;;6251177;22;20073;-83
2024/03/13 10:50:21;;;;;;;4.85;3.90;;;;;;;;;;6251429;22;20020;-85
2024/03/13 10:52:48;;;;;;;7.60;4.03;;;;;;;;;;6251086;22;20340;-84
2024/03/13 10:55:15;;;;;;;3.65;3.35;;;;;;;;;;6250626;22;20525;-86
2024/03/13 10:57:43;;;;;;;4.10;3.58;;;;;;;;;;6250793;22;20467;-81
2024/03/13 11:00:11;;;;;;;6.70;3.00;;;;;;;;;;6252496;22;20027;-84
2024/03/13 11:02:39;;;;;;;3.70;2.95;;;;;;;;;;6278701;22;20016;-84
2024/03/13 11:05:11;;;;;;;3.90;3.45;;;;;;;;;;6251852;22;20026;-85
2024/03/13 11:07:52;;;;;;;11.25;3.63;;;;;;;;;;6253880;22;20481;-83
2024/03/13 11:10:23;;;;;;;6.30;3.15;;;;;;;;;;6254812;22;20031;-82
2024/03/13 11:12:50;;;;;;;5.88;3.60;;;;;;;;;;6250871;22;20024;-82
2024/03/13 11:15:37;;;;;;;5.85;3.28;;;;;;;;;;6278275;22;20043;-82
2024/03/13 11:18:05;;;;;;;5.32;3.30;;;;;;;;;;6250788;22;20028;-84
2024/03/13 11:20:56;;;;;;;8.68;3.50;;;;;;;;;;6278256;22;20533;-83
2024/03/13 11:23:27;;;;;;;9.25;4.00;;;;;;;;;;6236112;22;20039;-84
2024/03/13 11:26:01;;;;;;;5.45;3.97;;;;;;;;;;6256372;22;20016;-84
2024/03/13 11:28:33;;;;;;;4.95;3.97;;;;;;;;;;6254927;22;20016;-82
2024/03/13 11:31:01;;;;;;;8.38;4.20;;;;;;;;;;6257972;22;20023;-84
2024/03/13 11:33:28;;;;;;;10.55;4.30;;;;;;;;;;6254290;22;20020;-84
2024/03/13 11:35:58;;;;;;;4.78;4.05;;;;;;;;;;6253395;22;20024;-86
2024/03/13 11:38:25;;;;;;;7.45;4.63;;;;;;;;;;6252812;22;20046;-87
2024/03/13 11:40:54;;;;;;;6.57;4.28;;;;;;;;;;6253080;22;20090;-84
2024/03/13 11:43:22;;;;;;;3.90;3.60;;;;;;;;;;6253055;22;20030;-83
2024/03/13 11:45:49;;;;;;;4.80;3.08;;;;;;;;;;6253041;22;20019;-82
2024/03/13 11:48:18;;;;;;;13.13;3.92;;;;;;;;;;6279573;22;20410;-83
2024/03/13 11:51:10;;;;;;;8.48;3.58;;;;;;;;;;6253034;22;20411;-84
2024/03/13 11:53:42;;;;;;;11.00;3.40;;;;;;;;;;6263616;22;20026;-85
2024/03/13 11:56:09;;;;;;;7.63;3.60;;;;;;;;;;6256416;22;20030;-84
2024/03/13 11:58:38;;;;;;;4.70;3.42;;;;;;;;;;6281474;22;20098;-84
2024/03/13 12:01:12;;;;;;;10.77;3.97;;;;;;;;;;6254254;22;20019;-85
2024/03/13 12:03:43;;;;;;;5.30;3.60;;;;;;;;;;6253915;22;20016;-85
2024/03/13 12:06:21;;;;;;;6.30;2.78;;;;;;;;;;6254026;22;20027;-82
2024/03/13 12:08:49;;;;;;;3.28;2.92;;;;;;;;;;6283026;22;20034;-83
2024/03/13 12:11:17;;;;;;;3.00;2.70;;;;;;;;;;6252928;22;20024;-83
2024/03/13 12:13:45;;;;;;;18.65;3.80;;;;;;;;;;6254429;22;20030;-85
2024/03/13 12:16:16;;;;;;;3.33;2.85;;;;;;;;;;6253807;22;20078;-84
2024/03/13 12:18:52;;;;;;;5.10;2.88;;;;;;;;;;6280693;22;20027;-84
2024/03/13 12:21:20;;;;;;;3.05;2.75;;;;;;;;;;6252557;22;20106;-84
2024/03/13 12:23:48;;;;;;;5.45;3.08;;;;;;;;;;6253354;22;20038;-86
2024/03/13 12:26:15;;;;;;;3.63;2.72;;;;;;;;;;6253357;22;20073;-84
2024/03/13 12:28:54;;;;;;;6.22;2.80;;;;;;;;;;6281709;22;20020;-85
2024/03/13 12:31:21;;;;;;;2.97;2.58;;;;;;;;;;6255897;22;20023;-84
2024/03/13 12:33:58;;;;;;;2.45;2.28;;;;;;;;;;6253417;22;20027;-85
2024/03/13 12:36:27;;;;;;;2.40;2.20;;;;;;;;;;6253041;22;20024;-84
2024/03/13 12:38:57;;;;;;;2.80;2.35;;;;;;;;;;6279700;22;20024;-84
2024/03/13 12:41:25;;;;;;;2.17;2.05;;;;;;;;;;6281952;22;20016;-84
2024/03/13 12:43:52;;;;;;;2.92;2.63;;;;;;;;;;6253295;22;20471;-81
2024/03/13 12:46:20;;;;;;;5.18;2.90;;;;;;;;;;6253884;22;20020;-83
2024/03/13 12:48:47;;;;;;;8.13;2.60;;;;;;;;;;6253518;22;20081;-80
2024/03/13 12:51:16;;;;;;;5.38;3.03;;;;;;;;;;6255951;22;20024;-85
2024/03/13 12:53:45;;;;;;;2.80;2.60;;;;;;;;;;6253010;22;20051;-84
2024/03/13 12:56:12;;;;;;;21.90;3.35;;;;;;;;;;6253265;22;20034;-85
2024/03/13 12:58:40;;;;;;;3.85;2.83;;;;;;;;;;6278721;22;20073;-85
2024/03/13 13:01:08;;;;;;;4.80;2.75;;;;;;;;;;6278752;22;20012;-85
2024/03/13 13:03:36;;;;;;;4.55;2.67;;;;;;;;;;6252650;22;20020;-83
2024/03/13 13:06:03;;;;;;;3.05;2.67;;;;;;;;;;6252811;22;20073;-84
2024/03/13 13:08:31;;;;;;;2.58;2.38;;;;;;;;;;6252626;22;20022;-84
2024/03/13 13:11:02;;;;;;;5.60;2.40;;;;;;;;;;6251999;22;20022;-85
2024/03/13 13:13:30;;;;;;;2.97;2.67;;;;;;;;;;6252052;22;20030;-83
2024/03/13 13:15:59;;;;;;;5.05;2.45;;;;;;;;;;6250768;22;20027;-87
2024/03/13 13:18:27;;;;;;;2.35;2.15;;;;;;;;;;6250536;22;20030;-85
2024/03/13 13:20:56;;;;;;;2.22;2.13;;;;;;;;;;6277150;22;20012;-84
2024/03/13 13:23:24;;;;;;;3.35;2.45;;;;;;;;;;6252147;22;20026;-84
2024/03/13 13:25:53;;;;;;;2.17;2.00;;;;;;;;;;6252067;22;20012;-85
2024/03/13 13:28:22;;;;;;;2.63;2.42;;;;;;;;;;6252668;22;20022;-85
2024/03/13 13:30:50;;;;;;;3.17;2.30;;;;;;;;;;6279089;22;20090;-84
2024/03/13 13:33:17;;;;;;;4.90;2.22;;;;;;;;;;6252414;22;20114;-83
2024/03/13 13:35:44;;;;;;;4.30;2.20;;;;;;;;;;6252127;22;20020;-81
2024/03/13 13:38:12;;;;;;;2.97;2.42;;;;;;;;;;6251596;22;20418;-84
2024/03/13 13:40:39;;;;;;;2.65;2.00;;;;;;;;;;6278607;22;20091;-86
2024/03/13 13:43:10;;;;;;;2.60;2.40;;;;;;;;;;6252057;22;20019;-85
2024/03/13 13:45:37;;;;;;;2.10;2.00;;;;;;;;;;6252079;22;20077;-84
2024/03/13 13:48:08;;;;;;;2.28;2.10;;;;;;;;;;6251137;22;20571;-84
2024/03/13 13:50:37;;;;;;;2.10;1.95;;;;;;;;;;6278429;22;20023;-86
2024/03/13 13:53:04;;;;;;;3.42;2.20;;;;;;;;;;6277595;22;20023;-82
2024/03/13 13:55:31;;;;;;;2.72;2.00;;;;;;;;;;6277394;22;20022;-85
2024/03/13 13:57:59;;;;;;;2.30;2.00;;;;;;;;;;6251482;22;20016;-85
2024/03/13 14:00:26;;;;;;;2.35;2.15;;;;;;;;;;6278130;22;20020;-85
2024/03/13 14:02:53;;;;;;;2.47;2.30;;;;;;;;;;6277940;22;20015;-85
2024/03/13 14:05:22;;;;;;;1.85;1.75;;;;;;;;;;6251152;22;20283;-85
2024/03/13 14:07:51;;;;;;;52.17;5.40;;;;;;;;;;6250682;22;20051;-82
2024/03/13 14:10:19;;;;;;;1.73;1.63;;;;;;;;;;6277290;22;20099;-85
2024/03/13 14:12:47;;;;;;;3.90;2.10;;;;;;;;;;6250599;22;20094;-83
2024/03/13 14:15:19;;;;;;;2.15;2.05;;;;;;;;;;6251201;22;20019;-84
2024/03/13 14:17:49;;;;;;;1.85;1.75;;;;;;;;;;6250461;22;20020;-86
2024/03/13 14:20:21;;;;;;;2.05;1.95;;;;;;;;;;6250434;22;20016;-83
2024/03/13 14:22:52;;;;;;;1.90;1.65;;;;;;;;;;6250799;22;20011;-84
2024/03/13 14:25:23;;;;;;;1.52;1.42;;;;;;;;;;6276889;22;20038;-84
2024/03/13 14:27:51;;;;;;;5.30;1.80;;;;;;;;;;6250019;22;20058;-81
2024/03/13 14:30:18;;;;;;;3.03;2.03;;;;;;;;;;6250444;22;20352;-84
2024/03/13 14:32:46;;;;;;;1.95;1.75;;;;;;;;;;6250579;22;20023;-84
2024/03/13 14:35:14;;;;;;;1.98;1.83;;;;;;;;;;6250019;22;20042;-85
2024/03/13 14:37:43;;;;;;;2.15;1.70;;;;;;;;;;6251196;22;20024;-84
2024/03/13 14:40:16;;;;;;;1.90;1.80;;;;;;;;;;6250474;22;20049;-83
2024/03/13 14:42:45;;;;;;;1.90;1.80;;;;;;;;;;6250395;22;20020;-85
2024/03/13 14:45:13;;;;;;;28.23;4.18;;;;;;;;;;6249840;22;20015;-85
2024/03/13 14:47:41;;;;;;;20.45;3.10;;;;;;;;;;6276189;22;20019;-85
2024/03/13 14:50:12;;;;;;;3.03;2.40;;;;;;;;;;6250595;22;20355;-83
2024/03/13 14:52:39;;;;;;;3.25;1.60;;;;;;;;;;6277136;22;20099;-85
2024/03/13 14:55:21;;;;;;;7.15;2.13;;;;;;;;;;6258629;22;20085;-84
2024/03/13 14:57:48;;;;;;;12.10;2.38;;;;;;;;;;6256624;22;20031;-85
2024/03/13 15:00:16;;;;;;;5.85;2.05;;;;;;;;;;6258309;22;20015;-86
2024/03/13 15:02:43;;;;;;;5.20;2.20;;;;;;;;;;6257299;22;20012;-87
2024/03/13 15:05:11;;;;;;;5.20;2.05;;;;;;;;;;6256981;22;20020;-85
2024/03/13 15:07:38;;;;;;;3.08;2.15;;;;;;;;;;6254874;22;20026;-85